sensor_id;sensor_type;location;lat;lon;timestamp;P1;durP1;ratioP1;P2;durP2;ratioP2
51292;SDS011;37377;45.186;9.778;2023-11-19T00:01:59;27.83;;;17.75;;
51292;SDS011;37377;45.186;9.778;2023-11-19T00:04:38;29.35;;;18.10;;
51292;SDS011;37377;45.186;9.778;2023-11-19T00:07:24;21.83;;;17.00;;
51292;SDS011;37377;45.186;9.778;2023-11-19T00:10:02;27.20;;;17.10;;
51292;SDS011;37377;45.186;9.778;2023-11-19T00:13:08;23.98;;;18.02;;
51292;SDS011;37377;45.186;9.778;2023-11-19T00:16:24;22.63;;;18.27;;
51292;SDS011;37377;45.186;9.778;2023-11-19T00:19:09;26.15;;;19.10;;
51292;SDS011;37377;45.186;9.778;2023-11-19T00:22:00;24.38;;;19.33;;
51292;SDS011;37377;45.186;9.778;2023-11-19T00:24:35;29.58;;;19.02;;
51292;SDS011;37377;45.186;9.778;2023-11-19T00:27:41;35.28;;;23.13;;
51292;SDS011;37377;45.186;9.778;2023-11-19T00:30:30;36.58;;;22.65;;
51292;SDS011;37377;45.186;9.778;2023-11-19T00:32:58;32.42;;;22.10;;
51292;SDS011;37377;45.186;9.778;2023-11-19T00:35:49;31.10;;;20.35;;
51292;SDS011;37377;45.186;9.778;2023-11-19T00:38:16;27.67;;;19.60;;
51292;SDS011;37377;45.186;9.778;2023-11-19T00:40:49;31.40;;;21.65;;
51292;SDS011;37377;45.186;9.778;2023-11-19T00:43:22;30.77;;;21.77;;
51292;SDS011;37377;45.186;9.778;2023-11-19T00:45:55;25.27;;;20.55;;
51292;SDS011;37377;45.186;9.778;2023-11-19T00:48:26;26.92;;;18.65;;
51292;SDS011;37377;45.186;9.778;2023-11-19T00:51:43;20.17;;;16.58;;
51292;SDS011;37377;45.186;9.778;2023-11-19T00:55:06;20.73;;;16.58;;
51292;SDS011;37377;45.186;9.778;2023-11-19T00:59:13;28.27;;;17.45;;
51292;SDS011;37377;45.186;9.778;2023-11-19T01:03:12;29.92;;;17.85;;
51292;SDS011;37377;45.186;9.778;2023-11-19T01:15:11;20.05;;;17.58;;
51292;SDS011;37377;45.186;9.778;2023-11-19T01:18:09;25.33;;;17.50;;
51292;SDS011;37377;45.186;9.778;2023-11-19T01:20:46;26.27;;;18.42;;
51292;SDS011;37377;45.186;9.778;2023-11-19T01:23:13;26.35;;;18.70;;
51292;SDS011;37377;45.186;9.778;2023-11-19T01:26:15;20.00;;;17.73;;
51292;SDS011;37377;45.186;9.778;2023-11-19T01:29:03;25.13;;;18.10;;
51292;SDS011;37377;45.186;9.778;2023-11-19T01:31:37;26.70;;;18.05;;
51292;SDS011;37377;45.186;9.778;2023-11-19T01:34:10;21.73;;;17.20;;
51292;SDS011;37377;45.186;9.778;2023-11-19T01:40:48;23.58;;;16.08;;
51292;SDS011;37377;45.186;9.778;2023-11-19T01:49:22;26.98;;;17.42;;
51292;SDS011;37377;45.186;9.778;2023-11-19T01:56:59;26.67;;;18.00;;
51292;SDS011;37377;45.186;9.778;2023-11-19T02:01:19;26.83;;;18.67;;
51292;SDS011;37377;45.186;9.778;2023-11-19T02:05:13;22.98;;;17.13;;
51292;SDS011;37377;45.186;9.778;2023-11-19T02:09:33;28.10;;;18.10;;
51292;SDS011;37377;45.186;9.778;2023-11-19T02:13:38;29.42;;;17.50;;
51292;SDS011;37377;45.186;9.778;2023-11-19T02:25:43;26.15;;;20.10;;
51292;SDS011;37377;45.186;9.778;2023-11-19T02:29:26;25.15;;;20.17;;
51292;SDS011;37377;45.186;9.778;2023-11-19T02:33:25;26.75;;;20.80;;
51292;SDS011;37377;45.186;9.778;2023-11-19T02:36:37;30.35;;;21.27;;
51292;SDS011;37377;45.186;9.778;2023-11-19T02:39:31;21.52;;;19.38;;
51292;SDS011;37377;45.186;9.778;2023-11-19T02:43:46;24.48;;;18.83;;
51292;SDS011;37377;45.186;9.778;2023-11-19T02:47:07;23.35;;;16.60;;
51292;SDS011;37377;45.186;9.778;2023-11-19T02:49:35;19.65;;;15.52;;
51292;SDS011;37377;45.186;9.778;2023-11-19T02:52:31;22.02;;;15.93;;
51292;SDS011;37377;45.186;9.778;2023-11-19T02:55:11;30.02;;;16.52;;
51292;SDS011;37377;45.186;9.778;2023-11-19T02:57:50;19.27;;;15.57;;
51292;SDS011;37377;45.186;9.778;2023-11-19T03:00:54;21.10;;;16.38;;
51292;SDS011;37377;45.186;9.778;2023-11-19T03:03:33;26.33;;;16.13;;
51292;SDS011;37377;45.186;9.778;2023-11-19T03:06:08;23.85;;;16.00;;
51292;SDS011;37377;45.186;9.778;2023-11-19T03:08:55;20.52;;;15.80;;
51292;SDS011;37377;45.186;9.778;2023-11-19T03:11:36;18.13;;;15.33;;
51292;SDS011;37377;45.186;9.778;2023-11-19T03:14:10;22.80;;;16.30;;
51292;SDS011;37377;45.186;9.778;2023-11-19T03:16:57;21.75;;;17.05;;
51292;SDS011;37377;45.186;9.778;2023-11-19T03:20:03;27.45;;;17.60;;
51292;SDS011;37377;45.186;9.778;2023-11-19T03:22:56;23.27;;;17.13;;
51292;SDS011;37377;45.186;9.778;2023-11-19T03:25:41;25.23;;;16.90;;
51292;SDS011;37377;45.186;9.778;2023-11-19T03:28:13;24.38;;;18.17;;
51292;SDS011;37377;45.186;9.778;2023-11-19T03:30:43;25.52;;;19.33;;
51292;SDS011;37377;45.186;9.778;2023-11-19T03:33:49;24.15;;;18.95;;
51292;SDS011;37377;45.186;9.778;2023-11-19T03:36:44;22.75;;;19.30;;
51292;SDS011;37377;45.186;9.778;2023-11-19T03:39:26;25.50;;;19.67;;
51292;SDS011;37377;45.186;9.778;2023-11-19T03:42:04;21.38;;;18.25;;
51292;SDS011;37377;45.186;9.778;2023-11-19T03:45:03;23.92;;;17.80;;
51292;SDS011;37377;45.186;9.778;2023-11-19T03:47:36;19.53;;;17.53;;
51292;SDS011;37377;45.186;9.778;2023-11-19T03:50:06;20.90;;;17.55;;
51292;SDS011;37377;45.186;9.778;2023-11-19T03:52:35;21.25;;;18.42;;
51292;SDS011;37377;45.186;9.778;2023-11-19T03:55:06;20.15;;;17.52;;
51292;SDS011;37377;45.186;9.778;2023-11-19T03:57:39;19.95;;;17.55;;
51292;SDS011;37377;45.186;9.778;2023-11-19T04:00:12;21.13;;;16.83;;
51292;SDS011;37377;45.186;9.778;2023-11-19T04:02:41;19.95;;;17.08;;
51292;SDS011;37377;45.186;9.778;2023-11-19T04:05:08;22.70;;;18.33;;
51292;SDS011;37377;45.186;9.778;2023-11-19T04:08:50;19.65;;;17.70;;
51292;SDS011;37377;45.186;9.778;2023-11-19T04:13:28;21.58;;;18.30;;
51292;SDS011;37377;45.186;9.778;2023-11-19T04:16:18;26.17;;;19.45;;
51292;SDS011;37377;45.186;9.778;2023-11-19T04:18:53;22.98;;;20.17;;
51292;SDS011;37377;45.186;9.778;2023-11-19T04:21:27;26.13;;;20.08;;
51292;SDS011;37377;45.186;9.778;2023-11-19T04:23:54;26.38;;;22.00;;
51292;SDS011;37377;45.186;9.778;2023-11-19T04:26:32;27.30;;;20.60;;
51292;SDS011;37377;45.186;9.778;2023-11-19T04:29:03;24.00;;;20.30;;
51292;SDS011;37377;45.186;9.778;2023-11-19T04:31:33;24.45;;;20.90;;
51292;SDS011;37377;45.186;9.778;2023-11-19T04:34:01;27.50;;;21.17;;
51292;SDS011;37377;45.186;9.778;2023-11-19T04:36:31;23.52;;;21.08;;
51292;SDS011;37377;45.186;9.778;2023-11-19T04:38:59;27.05;;;21.40;;
51292;SDS011;37377;45.186;9.778;2023-11-19T04:41:48;28.38;;;20.38;;
51292;SDS011;37377;45.186;9.778;2023-11-19T04:44:32;29.40;;;21.58;;
51292;SDS011;37377;45.186;9.778;2023-11-19T04:47:08;25.92;;;21.05;;
51292;SDS011;37377;45.186;9.778;2023-11-19T04:49:44;25.15;;;20.90;;
51292;SDS011;37377;45.186;9.778;2023-11-19T04:52:27;24.70;;;20.67;;
51292;SDS011;37377;45.186;9.778;2023-11-19T04:54:57;26.60;;;21.75;;
51292;SDS011;37377;45.186;9.778;2023-11-19T04:57:24;29.98;;;21.15;;
51292;SDS011;37377;45.186;9.778;2023-11-19T04:59:52;29.15;;;20.98;;
51292;SDS011;37377;45.186;9.778;2023-11-19T05:02:19;28.35;;;21.35;;
51292;SDS011;37377;45.186;9.778;2023-11-19T05:04:52;28.17;;;21.55;;
51292;SDS011;37377;45.186;9.778;2023-11-19T05:09:52;35.45;;;24.08;;
51292;SDS011;37377;45.186;9.778;2023-11-19T05:12:25;30.98;;;22.13;;
51292;SDS011;37377;45.186;9.778;2023-11-19T05:14:55;32.05;;;23.33;;
51292;SDS011;37377;45.186;9.778;2023-11-19T05:17:42;30.02;;;22.42;;
51292;SDS011;37377;45.186;9.778;2023-11-19T05:20:13;27.58;;;22.23;;
51292;SDS011;37377;45.186;9.778;2023-11-19T05:22:44;29.00;;;21.73;;
51292;SDS011;37377;45.186;9.778;2023-11-19T05:25:18;26.92;;;21.20;;
51292;SDS011;37377;45.186;9.778;2023-11-19T05:27:47;29.25;;;21.75;;
51292;SDS011;37377;45.186;9.778;2023-11-19T05:30:14;34.75;;;23.30;;
51292;SDS011;37377;45.186;9.778;2023-11-19T05:32:54;31.85;;;22.63;;
51292;SDS011;37377;45.186;9.778;2023-11-19T05:35:24;34.85;;;23.80;;
51292;SDS011;37377;45.186;9.778;2023-11-19T05:37:53;24.70;;;21.08;;
51292;SDS011;37377;45.186;9.778;2023-11-19T05:40:27;30.33;;;20.88;;
51292;SDS011;37377;45.186;9.778;2023-11-19T05:42:59;23.15;;;19.20;;
51292;SDS011;37377;45.186;9.778;2023-11-19T05:45:32;31.75;;;20.20;;
51292;SDS011;37377;45.186;9.778;2023-11-19T05:48:06;29.55;;;19.90;;
51292;SDS011;37377;45.186;9.778;2023-11-19T05:50:36;25.63;;;19.90;;
51292;SDS011;37377;45.186;9.778;2023-11-19T05:53:03;36.05;;;20.88;;
51292;SDS011;37377;45.186;9.778;2023-11-19T05:55:36;26.63;;;20.40;;
51292;SDS011;37377;45.186;9.778;2023-11-19T05:58:23;21.90;;;17.48;;
51292;SDS011;37377;45.186;9.778;2023-11-19T06:01:02;21.05;;;16.27;;
51292;SDS011;37377;45.186;9.778;2023-11-19T06:03:38;19.35;;;16.35;;
51292;SDS011;37377;45.186;9.778;2023-11-19T06:06:17;25.77;;;16.85;;
51292;SDS011;37377;45.186;9.778;2023-11-19T06:08:54;29.25;;;16.08;;
51292;SDS011;37377;45.186;9.778;2023-11-19T06:11:24;22.17;;;16.10;;
51292;SDS011;37377;45.186;9.778;2023-11-19T06:14:13;19.20;;;15.10;;
51292;SDS011;37377;45.186;9.778;2023-11-19T06:17:00;26.52;;;15.70;;
51292;SDS011;37377;45.186;9.778;2023-11-19T06:19:40;18.42;;;15.07;;
51292;SDS011;37377;45.186;9.778;2023-11-19T06:22:13;21.42;;;15.35;;
51292;SDS011;37377;45.186;9.778;2023-11-19T06:24:40;20.13;;;14.48;;
51292;SDS011;37377;45.186;9.778;2023-11-19T06:27:07;17.13;;;15.10;;
51292;SDS011;37377;45.186;9.778;2023-11-19T06:29:40;18.80;;;15.45;;
51292;SDS011;37377;45.186;9.778;2023-11-19T06:32:16;23.00;;;14.98;;
51292;SDS011;37377;45.186;9.778;2023-11-19T06:34:46;21.88;;;14.90;;
51292;SDS011;37377;45.186;9.778;2023-11-19T06:37:14;20.08;;;14.90;;
51292;SDS011;37377;45.186;9.778;2023-11-19T06:39:43;18.30;;;15.60;;
51292;SDS011;37377;45.186;9.778;2023-11-19T06:42:19;27.83;;;20.05;;
51292;SDS011;37377;45.186;9.778;2023-11-19T06:44:49;22.38;;;18.00;;
51292;SDS011;37377;45.186;9.778;2023-11-19T06:47:16;18.30;;;15.93;;
51292;SDS011;37377;45.186;9.778;2023-11-19T06:49:51;17.17;;;15.13;;
51292;SDS011;37377;45.186;9.778;2023-11-19T06:52:23;17.50;;;14.90;;
51292;SDS011;37377;45.186;9.778;2023-11-19T06:54:55;20.55;;;15.02;;
51292;SDS011;37377;45.186;9.778;2023-11-19T06:57:32;21.23;;;15.68;;
51292;SDS011;37377;45.186;9.778;2023-11-19T07:00:12;20.42;;;15.50;;
51292;SDS011;37377;45.186;9.778;2023-11-19T07:02:40;21.48;;;15.63;;
51292;SDS011;37377;45.186;9.778;2023-11-19T07:05:08;21.23;;;15.75;;
51292;SDS011;37377;45.186;9.778;2023-11-19T07:07:43;20.98;;;15.93;;
51292;SDS011;37377;45.186;9.778;2023-11-19T07:10:14;17.23;;;15.02;;
51292;SDS011;37377;45.186;9.778;2023-11-19T07:12:42;23.48;;;14.80;;
51292;SDS011;37377;45.186;9.778;2023-11-19T07:15:12;17.20;;;14.82;;
51292;SDS011;37377;45.186;9.778;2023-11-19T07:17:41;24.42;;;14.93;;
51292;SDS011;37377;45.186;9.778;2023-11-19T07:20:13;16.10;;;14.35;;
51292;SDS011;37377;45.186;9.778;2023-11-19T07:22:52;18.60;;;14.50;;
51292;SDS011;37377;45.186;9.778;2023-11-19T07:25:23;16.42;;;13.85;;
51292;SDS011;37377;45.186;9.778;2023-11-19T07:27:51;25.48;;;14.48;;
51292;SDS011;37377;45.186;9.778;2023-11-19T07:30:18;18.48;;;14.88;;
51292;SDS011;37377;45.186;9.778;2023-11-19T07:32:45;19.00;;;14.93;;
51292;SDS011;37377;45.186;9.778;2023-11-19T07:35:16;20.35;;;13.90;;
51292;SDS011;37377;45.186;9.778;2023-11-19T07:37:47;16.65;;;13.68;;
51292;SDS011;37377;45.186;9.778;2023-11-19T07:40:17;18.02;;;13.90;;
51292;SDS011;37377;45.186;9.778;2023-11-19T07:42:45;15.80;;;13.98;;
51292;SDS011;37377;45.186;9.778;2023-11-19T07:45:12;18.48;;;14.25;;
51292;SDS011;37377;45.186;9.778;2023-11-19T07:47:39;18.30;;;13.80;;
51292;SDS011;37377;45.186;9.778;2023-11-19T07:50:07;18.98;;;13.43;;
51292;SDS011;37377;45.186;9.778;2023-11-19T07:52:34;18.52;;;13.57;;
51292;SDS011;37377;45.186;9.778;2023-11-19T07:55:01;19.42;;;13.40;;
51292;SDS011;37377;45.186;9.778;2023-11-19T07:57:28;19.65;;;13.45;;
51292;SDS011;37377;45.186;9.778;2023-11-19T07:59:57;20.08;;;13.80;;
51292;SDS011;37377;45.186;9.778;2023-11-19T08:02:24;21.10;;;13.48;;
51292;SDS011;37377;45.186;9.778;2023-11-19T08:04:51;18.98;;;13.57;;
51292;SDS011;37377;45.186;9.778;2023-11-19T08:07:18;19.05;;;12.80;;
51292;SDS011;37377;45.186;9.778;2023-11-19T08:09:45;21.52;;;13.32;;
51292;SDS011;37377;45.186;9.778;2023-11-19T08:12:12;21.58;;;12.20;;
51292;SDS011;37377;45.186;9.778;2023-11-19T08:14:41;25.27;;;11.85;;
51292;SDS011;37377;45.186;9.778;2023-11-19T08:17:08;21.80;;;12.27;;
51292;SDS011;37377;45.186;9.778;2023-11-19T08:19:35;21.08;;;12.38;;
51292;SDS011;37377;45.186;9.778;2023-11-19T08:22:01;16.98;;;11.38;;
51292;SDS011;37377;45.186;9.778;2023-11-19T08:24:28;16.38;;;11.40;;
51292;SDS011;37377;45.186;9.778;2023-11-19T08:26:55;13.85;;;11.35;;
51292;SDS011;37377;45.186;9.778;2023-11-19T08:29:25;19.23;;;12.05;;
51292;SDS011;37377;45.186;9.778;2023-11-19T08:31:52;18.45;;;11.90;;
51292;SDS011;37377;45.186;9.778;2023-11-19T08:34:19;21.55;;;11.30;;
51292;SDS011;37377;45.186;9.778;2023-11-19T08:36:46;18.80;;;11.57;;
51292;SDS011;37377;45.186;9.778;2023-11-19T08:39:16;14.68;;;12.88;;
51292;SDS011;37377;45.186;9.778;2023-11-19T08:41:43;17.45;;;12.75;;
51292;SDS011;37377;45.186;9.778;2023-11-19T08:44:10;12.93;;;11.43;;
51292;SDS011;37377;45.186;9.778;2023-11-19T08:46:36;18.58;;;11.27;;
51292;SDS011;37377;45.186;9.778;2023-11-19T08:49:03;14.43;;;11.13;;
51292;SDS011;37377;45.186;9.778;2023-11-19T08:51:31;14.40;;;11.48;;
51292;SDS011;37377;45.186;9.778;2023-11-19T08:53:58;14.93;;;11.98;;
51292;SDS011;37377;45.186;9.778;2023-11-19T08:56:25;16.55;;;12.13;;
51292;SDS011;37377;45.186;9.778;2023-11-19T08:58:52;18.67;;;12.82;;
51292;SDS011;37377;45.186;9.778;2023-11-19T09:01:19;14.38;;;12.93;;
51292;SDS011;37377;45.186;9.778;2023-11-19T09:03:45;19.95;;;15.23;;
51292;SDS011;37377;45.186;9.778;2023-11-19T09:06:12;19.00;;;13.00;;
51292;SDS011;37377;45.186;9.778;2023-11-19T09:08:39;16.70;;;12.48;;
51292;SDS011;37377;45.186;9.778;2023-11-19T09:11:07;17.42;;;12.95;;
51292;SDS011;37377;45.186;9.778;2023-11-19T09:13:35;18.10;;;13.13;;
51292;SDS011;37377;45.186;9.778;2023-11-19T09:16:02;20.58;;;13.40;;
51292;SDS011;37377;45.186;9.778;2023-11-19T09:18:30;19.92;;;13.27;;
51292;SDS011;37377;45.186;9.778;2023-11-19T09:20:58;24.55;;;13.85;;
51292;SDS011;37377;45.186;9.778;2023-11-19T09:23:29;18.35;;;14.85;;
51292;SDS011;37377;45.186;9.778;2023-11-19T09:25:59;17.90;;;14.10;;
51292;SDS011;37377;45.186;9.778;2023-11-19T09:28:26;25.10;;;15.30;;
51292;SDS011;37377;45.186;9.778;2023-11-19T09:30:53;18.30;;;15.20;;
51292;SDS011;37377;45.186;9.778;2023-11-19T09:33:20;21.00;;;14.93;;
51292;SDS011;37377;45.186;9.778;2023-11-19T09:35:47;18.85;;;15.82;;
51292;SDS011;37377;45.186;9.778;2023-11-19T09:38:16;24.13;;;16.08;;
51292;SDS011;37377;45.186;9.778;2023-11-19T09:40:44;22.52;;;17.00;;
51292;SDS011;37377;45.186;9.778;2023-11-19T09:43:13;21.05;;;16.33;;
51292;SDS011;37377;45.186;9.778;2023-11-19T09:45:47;24.58;;;17.58;;
51292;SDS011;37377;45.186;9.778;2023-11-19T09:48:17;18.70;;;16.65;;
51292;SDS011;37377;45.186;9.778;2023-11-19T09:50:47;20.05;;;16.38;;
51292;SDS011;37377;45.186;9.778;2023-11-19T09:53:15;26.10;;;17.83;;
51292;SDS011;37377;45.186;9.778;2023-11-19T09:55:42;26.98;;;18.63;;
51292;SDS011;37377;45.186;9.778;2023-11-19T09:58:10;26.35;;;16.83;;
51292;SDS011;37377;45.186;9.778;2023-11-19T10:00:41;26.17;;;17.60;;
51292;SDS011;37377;45.186;9.778;2023-11-19T10:03:08;23.67;;;17.58;;
51292;SDS011;37377;45.186;9.778;2023-11-19T10:05:39;24.98;;;17.70;;
51292;SDS011;37377;45.186;9.778;2023-11-19T10:08:06;25.85;;;17.15;;
51292;SDS011;37377;45.186;9.778;2023-11-19T10:10:34;18.65;;;16.40;;
51292;SDS011;37377;45.186;9.778;2023-11-19T10:13:01;23.98;;;19.45;;
51292;SDS011;37377;45.186;9.778;2023-11-19T10:15:28;27.40;;;17.95;;
51292;SDS011;37377;45.186;9.778;2023-11-19T10:18:02;22.90;;;16.27;;
51292;SDS011;37377;45.186;9.778;2023-11-19T10:20:41;18.83;;;16.90;;
51292;SDS011;37377;45.186;9.778;2023-11-19T10:23:09;24.10;;;16.88;;
51292;SDS011;37377;45.186;9.778;2023-11-19T10:25:37;20.83;;;16.52;;
51292;SDS011;37377;45.186;9.778;2023-11-19T10:28:04;20.13;;;18.02;;
51292;SDS011;37377;45.186;9.778;2023-11-19T10:30:31;25.70;;;20.65;;
51292;SDS011;37377;45.186;9.778;2023-11-19T10:33:04;21.48;;;17.80;;
51292;SDS011;37377;45.186;9.778;2023-11-19T10:35:33;23.70;;;17.55;;
51292;SDS011;37377;45.186;9.778;2023-11-19T10:38:01;24.80;;;17.50;;
51292;SDS011;37377;45.186;9.778;2023-11-19T10:40:40;26.70;;;19.95;;
51292;SDS011;37377;45.186;9.778;2023-11-19T10:43:07;20.77;;;17.73;;
51292;SDS011;37377;45.186;9.778;2023-11-19T10:45:36;19.70;;;17.25;;
51292;SDS011;37377;45.186;9.778;2023-11-19T10:48:04;19.42;;;17.35;;
51292;SDS011;37377;45.186;9.778;2023-11-19T10:50:36;30.65;;;19.23;;
51292;SDS011;37377;45.186;9.778;2023-11-19T10:53:05;28.27;;;17.73;;
51292;SDS011;37377;45.186;9.778;2023-11-19T10:55:33;20.70;;;18.08;;
51292;SDS011;37377;45.186;9.778;2023-11-19T10:58:05;22.63;;;17.70;;
51292;SDS011;37377;45.186;9.778;2023-11-19T11:03:25;20.15;;;17.15;;
51292;SDS011;37377;45.186;9.778;2023-11-19T11:05:53;22.90;;;17.80;;
51292;SDS011;37377;45.186;9.778;2023-11-19T11:08:20;28.33;;;17.85;;
51292;SDS011;37377;45.186;9.778;2023-11-19T11:10:54;21.25;;;17.73;;
51292;SDS011;37377;45.186;9.778;2023-11-19T11:13:24;27.67;;;18.27;;
51292;SDS011;37377;45.186;9.778;2023-11-19T11:15:55;23.60;;;17.90;;
51292;SDS011;37377;45.186;9.778;2023-11-19T11:18:27;22.02;;;17.23;;
51292;SDS011;37377;45.186;9.778;2023-11-19T11:20:56;24.15;;;17.90;;
51292;SDS011;37377;45.186;9.778;2023-11-19T11:23:47;18.95;;;17.05;;
51292;SDS011;37377;45.186;9.778;2023-11-19T11:27:14;17.85;;;16.00;;
51292;SDS011;37377;45.186;9.778;2023-11-19T11:34:53;27.55;;;16.98;;
51292;SDS011;37377;45.186;9.778;2023-11-19T11:37:34;17.65;;;15.73;;
51292;SDS011;37377;45.186;9.778;2023-11-19T11:40:15;26.02;;;17.50;;
51292;SDS011;37377;45.186;9.778;2023-11-19T11:42:45;17.85;;;15.95;;
51292;SDS011;37377;45.186;9.778;2023-11-19T11:45:13;17.60;;;15.10;;
51292;SDS011;37377;45.186;9.778;2023-11-19T11:50:09;21.42;;;15.57;;
51292;SDS011;37377;45.186;9.778;2023-11-19T11:55:36;18.40;;;15.48;;
51292;SDS011;37377;45.186;9.778;2023-11-19T11:58:19;19.45;;;17.13;;
51292;SDS011;37377;45.186;9.778;2023-11-19T12:00:48;21.58;;;16.58;;
51292;SDS011;37377;45.186;9.778;2023-11-19T12:03:22;21.30;;;15.40;;
51292;SDS011;37377;45.186;9.778;2023-11-19T12:05:49;19.80;;;16.10;;
51292;SDS011;37377;45.186;9.778;2023-11-19T12:08:20;21.00;;;16.50;;
51292;SDS011;37377;45.186;9.778;2023-11-19T12:10:53;18.65;;;15.18;;
51292;SDS011;37377;45.186;9.778;2023-11-19T12:13:24;20.20;;;16.67;;
51292;SDS011;37377;45.186;9.778;2023-11-19T12:16:10;22.75;;;17.23;;
51292;SDS011;37377;45.186;9.778;2023-11-19T12:18:38;23.85;;;16.20;;
51292;SDS011;37377;45.186;9.778;2023-11-19T12:21:06;18.20;;;16.30;;
51292;SDS011;37377;45.186;9.778;2023-11-19T12:23:43;20.75;;;17.40;;
51292;SDS011;37377;45.186;9.778;2023-11-19T12:26:20;20.75;;;16.65;;
51292;SDS011;37377;45.186;9.778;2023-11-19T12:29:00;23.17;;;17.33;;
51292;SDS011;37377;45.186;9.778;2023-11-19T12:31:34;20.40;;;15.55;;
51292;SDS011;37377;45.186;9.778;2023-11-19T12:34:05;22.48;;;15.98;;
51292;SDS011;37377;45.186;9.778;2023-11-19T12:36:33;18.48;;;16.58;;
51292;SDS011;37377;45.186;9.778;2023-11-19T12:39:01;19.75;;;15.63;;
51292;SDS011;37377;45.186;9.778;2023-11-19T12:41:28;20.58;;;16.15;;
51292;SDS011;37377;45.186;9.778;2023-11-19T12:44:08;20.13;;;15.85;;
51292;SDS011;37377;45.186;9.778;2023-11-19T12:46:36;20.08;;;16.80;;
51292;SDS011;37377;45.186;9.778;2023-11-19T12:49:08;20.22;;;15.99;;
51292;SDS011;37377;45.186;9.778;2023-11-19T12:51:38;19.20;;;15.23;;
51292;SDS011;37377;45.186;9.778;2023-11-19T12:54:05;18.88;;;16.88;;
51292;SDS011;37377;45.186;9.778;2023-11-19T12:56:32;21.23;;;15.52;;
51292;SDS011;37377;45.186;9.778;2023-11-19T12:59:09;20.30;;;15.65;;
51292;SDS011;37377;45.186;9.778;2023-11-19T13:01:38;18.70;;;16.77;;
51292;SDS011;37377;45.186;9.778;2023-11-19T13:04:16;21.17;;;15.65;;
51292;SDS011;37377;45.186;9.778;2023-11-19T13:06:45;17.05;;;15.35;;
51292;SDS011;37377;45.186;9.778;2023-11-19T13:09:30;22.42;;;16.60;;
51292;SDS011;37377;45.186;9.778;2023-11-19T13:11:58;26.80;;;15.10;;
51292;SDS011;37377;45.186;9.778;2023-11-19T13:14:37;27.20;;;17.13;;
51292;SDS011;37377;45.186;9.778;2023-11-19T13:19:32;27.65;;;16.52;;
51292;SDS011;37377;45.186;9.778;2023-11-19T13:21:59;21.52;;;15.32;;
51292;SDS011;37377;45.186;9.778;2023-11-19T13:24:26;22.90;;;16.60;;
51292;SDS011;37377;45.186;9.778;2023-11-19T13:26:52;19.35;;;15.52;;
51292;SDS011;37377;45.186;9.778;2023-11-19T13:29:19;21.30;;;15.48;;
51292;SDS011;37377;45.186;9.778;2023-11-19T13:31:46;19.08;;;14.82;;
51292;SDS011;37377;45.186;9.778;2023-11-19T13:34:14;19.50;;;15.07;;
51292;SDS011;37377;45.186;9.778;2023-11-19T13:36:41;16.63;;;14.88;;
51292;SDS011;37377;45.186;9.778;2023-11-19T13:39:08;18.13;;;15.18;;
51292;SDS011;37377;45.186;9.778;2023-11-19T13:41:35;19.92;;;15.40;;
51292;SDS011;37377;45.186;9.778;2023-11-19T13:44:02;17.42;;;15.63;;
51292;SDS011;37377;45.186;9.778;2023-11-19T13:46:34;19.83;;;15.65;;
51292;SDS011;37377;45.186;9.778;2023-11-19T13:49:01;20.95;;;15.10;;
51292;SDS011;37377;45.186;9.778;2023-11-19T13:51:31;18.02;;;14.75;;
51292;SDS011;37377;45.186;9.778;2023-11-19T13:53:59;15.70;;;14.05;;
51292;SDS011;37377;45.186;9.778;2023-11-19T13:56:26;22.13;;;14.57;;
51292;SDS011;37377;45.186;9.778;2023-11-19T13:58:53;16.95;;;13.95;;
51292;SDS011;37377;45.186;9.778;2023-11-19T14:01:20;26.80;;;14.57;;
51292;SDS011;37377;45.186;9.778;2023-11-19T14:03:50;22.75;;;14.00;;
51292;SDS011;37377;45.186;9.778;2023-11-19T14:06:16;24.27;;;15.30;;
51292;SDS011;37377;45.186;9.778;2023-11-19T14:08:43;17.42;;;14.75;;
51292;SDS011;37377;45.186;9.778;2023-11-19T14:11:11;18.10;;;14.57;;
51292;SDS011;37377;45.186;9.778;2023-11-19T14:13:38;18.13;;;14.70;;
51292;SDS011;37377;45.186;9.778;2023-11-19T14:16:05;20.38;;;14.23;;
51292;SDS011;37377;45.186;9.778;2023-11-19T14:18:33;18.00;;;13.73;;
51292;SDS011;37377;45.186;9.778;2023-11-19T14:21:03;16.85;;;13.82;;
51292;SDS011;37377;45.186;9.778;2023-11-19T14:23:33;15.68;;;13.90;;
51292;SDS011;37377;45.186;9.778;2023-11-19T14:26:00;15.60;;;13.88;;
51292;SDS011;37377;45.186;9.778;2023-11-19T14:28:27;16.05;;;13.18;;
51292;SDS011;37377;45.186;9.778;2023-11-19T14:30:54;16.42;;;13.98;;
51292;SDS011;37377;45.186;9.778;2023-11-19T14:33:24;18.05;;;13.60;;
51292;SDS011;37377;45.186;9.778;2023-11-19T14:35:50;19.83;;;13.73;;
51292;SDS011;37377;45.186;9.778;2023-11-19T14:38:18;16.50;;;14.77;;
51292;SDS011;37377;45.186;9.778;2023-11-19T14:40:45;15.90;;;13.20;;
51292;SDS011;37377;45.186;9.778;2023-11-19T14:43:16;22.60;;;14.57;;
51292;SDS011;37377;45.186;9.778;2023-11-19T14:45:42;20.48;;;15.38;;
51292;SDS011;37377;45.186;9.778;2023-11-19T14:48:16;15.03;;;13.53;;
51292;SDS011;37377;45.186;9.778;2023-11-19T14:50:44;17.95;;;13.45;;
51292;SDS011;37377;45.186;9.778;2023-11-19T14:53:11;22.73;;;14.00;;
51292;SDS011;37377;45.186;9.778;2023-11-19T14:55:38;17.67;;;13.82;;
51292;SDS011;37377;45.186;9.778;2023-11-19T14:58:05;19.48;;;14.18;;
51292;SDS011;37377;45.186;9.778;2023-11-19T15:00:37;19.95;;;14.23;;
51292;SDS011;37377;45.186;9.778;2023-11-19T15:03:04;16.65;;;13.43;;
51292;SDS011;37377;45.186;9.778;2023-11-19T15:05:33;18.17;;;13.65;;
51292;SDS011;37377;45.186;9.778;2023-11-19T15:08:01;17.80;;;14.20;;
51292;SDS011;37377;45.186;9.778;2023-11-19T15:10:29;20.85;;;15.60;;
51292;SDS011;37377;45.186;9.778;2023-11-19T15:12:56;15.60;;;13.98;;
51292;SDS011;37377;45.186;9.778;2023-11-19T15:15:23;23.20;;;15.15;;
51292;SDS011;37377;45.186;9.778;2023-11-19T15:17:52;15.73;;;13.88;;
51292;SDS011;37377;45.186;9.778;2023-11-19T15:20:20;16.80;;;13.02;;
51292;SDS011;37377;45.186;9.778;2023-11-19T15:22:49;20.67;;;14.05;;
51292;SDS011;37377;45.186;9.778;2023-11-19T15:25:16;17.92;;;14.52;;
51292;SDS011;37377;45.186;9.778;2023-11-19T15:27:43;16.90;;;14.52;;
51292;SDS011;37377;45.186;9.778;2023-11-19T15:30:12;21.98;;;14.60;;
51292;SDS011;37377;45.186;9.778;2023-11-19T15:32:42;30.27;;;15.07;;
51292;SDS011;37377;45.186;9.778;2023-11-19T15:35:09;21.75;;;15.00;;
51292;SDS011;37377;45.186;9.778;2023-11-19T15:37:40;25.08;;;16.10;;
51292;SDS011;37377;45.186;9.778;2023-11-19T15:40:09;26.70;;;16.17;;
51292;SDS011;37377;45.186;9.778;2023-11-19T15:42:40;21.50;;;15.98;;
51292;SDS011;37377;45.186;9.778;2023-11-19T15:45:08;22.27;;;15.77;;
51292;SDS011;37377;45.186;9.778;2023-11-19T15:47:35;35.20;;;22.00;;
51292;SDS011;37377;45.186;9.778;2023-11-19T15:50:02;45.22;;;32.28;;
51292;SDS011;37377;45.186;9.778;2023-11-19T15:52:30;85.60;;;55.60;;
51292;SDS011;37377;45.186;9.778;2023-11-19T15:54:58;69.47;;;45.05;;
51292;SDS011;37377;45.186;9.778;2023-11-19T15:57:25;41.00;;;26.35;;
51292;SDS011;37377;45.186;9.778;2023-11-19T15:59:52;27.73;;;18.17;;
51292;SDS011;37377;45.186;9.778;2023-11-19T16:02:19;26.10;;;18.90;;
51292;SDS011;37377;45.186;9.778;2023-11-19T16:04:46;28.80;;;20.83;;